KMWC/MWC METAR and TAF weather

Enter ICAO airport designator
Station Type Date Time Source
KMWC METAR 2021/05/12 04:35 UTC NOAA

KMWC 120435Z AUTO 00000KT 10SM CLR 03/M02 A3043 RMK AO2


Station Type Date Time Source
KMWC Decoded METAR 2021/05/12 04:35 UTC NOAA

Milwaukee / Timmerman, WI, United States (KMWC) 43-07N 088-02W
May 12, 2021 - 12:35 AM EDT / 2021.05.12 0435 UTC
Wind: Calm:0
Visibility: 10 mile(s):0
Sky conditions: clear
Temperature: 37 F (3 C)
Dew Point: 28 F (-2 C)
Relative Humidity: 69%
Pressure (altimeter): 30.43 in. Hg (1030 hPa)
ob: KMWC 120435Z AUTO 00000KT 10SM CLR 03/M02 A3043 RMK AO2
cycle: 4

Station Type Date Time Source
KMWC TAF UTC NOAA

Error!

Example: see airport list